Time;durP1;ratioP1;P1;durP2;ratioP2;P2;SDS_P1;SDS_P2;PMS_P1;PMS_P2;Temp;Humidity;BMP_temperature;BMP_pressure;BME280_temperature;BME280_humidity;BME280_pressure;Samples;Min_cycle;Max_cycle;Signal;HPM_P1;HPM_P2
2022/03/13 00:00:11;;;;;;;15.70;7.95;;;;;;;3.73;34.97;101648.91;5101540;28;20044;-69
2022/03/13 00:02:38;;;;;;;14.82;7.20;;;;;;;3.67;34.74;101662.78;5109218;27;20043;-68
2022/03/13 00:05:08;;;;;;;14.27;7.43;;;;;;;3.67;34.75;101662.78;5107080;27;20121;-68
2022/03/13 00:07:37;;;;;;;14.07;6.93;;;;;;;3.84;34.52;101655.69;5110479;28;20039;-69
2022/03/13 00:10:05;;;;;;;16.10;7.38;;;;;;;3.59;35.17;101656.81;5097490;28;20058;-68
2022/03/13 00:12:32;;;;;;;15.50;7.47;;;;;;;3.68;34.91;101666.25;5102665;27;20321;-68
2022/03/13 00:15:01;;;;;;;13.13;7.20;;;;;;;3.43;36.11;101658.69;5089045;28;20046;-68
2022/03/13 00:17:29;;;;;;;14.88;7.53;;;;;;;3.15;36.33;101658.88;5089641;28;20496;-71
2022/03/13 00:20:00;;;;;;;16.52;7.38;;;;;;;2.80;36.84;101659.97;5088379;28;20082;-71
2022/03/13 00:22:27;;;;;;;12.40;7.22;;;;;;;2.93;36.18;101645.19;5086679;28;20044;-70
2022/03/13 00:24:53;;;;;;;13.45;7.47;;;;;;;2.51;37.21;101648.03;5078518;28;20081;-70
2022/03/13 00:27:19;;;;;;;14.45;7.32;;;;;;;3.03;36.18;101651.19;5094315;28;20097;-70
2022/03/13 00:29:46;;;;;;;12.75;7.15;;;;;;;3.13;36.00;101650.25;5088024;28;20121;-70
2022/03/13 00:32:12;;;;;;;13.43;7.22;;;;;;;2.81;36.66;101650.44;5089350;28;20040;-70
2022/03/13 00:34:40;;;;;;;16.33;7.93;;;;;;;2.74;36.48;101652.22;5088697;28;20046;-70
2022/03/13 00:37:07;;;;;;;14.55;6.90;;;;;;;2.90;36.85;101645.22;5088202;28;20067;-70
2022/03/13 00:39:38;;;;;;;16.35;6.70;;;;;;;2.94;36.46;101645.19;5077435;28;20574;-70
2022/03/13 00:42:04;;;;;;;14.18;7.05;;;;;;;2.77;36.37;101638.41;5089537;28;20110;-70
2022/03/13 00:44:31;;;;;;;12.82;6.38;;;;;;;3.41;35.09;101631.03;5080940;28;20385;-70
2022/03/13 00:46:57;;;;;;;13.23;6.45;;;;;;;3.42;35.25;101643.13;5069570;28;20095;-70
2022/03/13 00:49:23;;;;;;;15.63;6.90;;;;;;;3.17;35.90;101639.00;5074152;28;20060;-70
2022/03/13 00:51:51;;;;;;;15.05;7.10;;;;;;;3.41;35.67;101628.44;5085413;28;20109;-70
2022/03/13 00:54:17;;;;;;;16.17;7.95;;;;;;;3.14;36.65;101628.66;5082830;28;20153;-70
2022/03/13 00:56:44;;;;;;;16.63;8.13;;;;;;;3.19;36.47;101632.06;5072628;28;20457;-70
2022/03/13 00:59:10;;;;;;;16.88;7.45;;;;;;;3.09;36.59;101635.59;5082183;28;20136;-70
2022/03/13 01:01:36;;;;;;;14.77;7.40;;;;;;;3.16;36.63;101635.56;5089075;28;20044;-70
2022/03/13 01:04:03;;;;;;;13.68;7.22;;;;;;;2.91;37.67;101634.00;5079408;28;20071;-70
2022/03/13 01:06:29;;;;;;;16.70;8.20;;;;;;;2.78;38.13;101628.03;5094499;28;20167;-70
2022/03/13 01:08:57;;;;;;;15.43;7.32;;;;;;;2.60;38.81;101635.03;5106633;28;20081;-70
2022/03/13 01:11:24;;;;;;;26.20;8.15;;;;;;;2.17;39.61;101621.41;5109833;28;20043;-70
2022/03/13 01:13:51;;;;;;;13.68;7.65;;;;;;;2.06;39.86;101625.75;5089092;28;20554;-70
2022/03/13 01:16:19;;;;;;;13.43;7.03;;;;;;;1.72;40.19;101631.00;5089384;28;20056;-70
2022/03/13 01:18:47;;;;;;;18.85;7.45;;;;;;;1.65;40.45;101624.13;5089750;28;20048;-70
2022/03/13 01:21:15;;;;;;;12.18;6.95;;;;;;;1.45;40.85;101625.84;5099358;28;20052;-70
2022/03/13 01:23:42;;;;;;;15.98;6.78;;;;;;;1.34;41.20;101630.16;5109333;28;20538;-70
2022/03/13 01:26:38;;;;;;;13.48;7.15;;;;;;;0.98;41.72;101630.97;5101817;28;20043;-70
2022/03/13 01:29:07;;;;;;;14.10;6.30;;;;;;;0.88;42.03;101621.50;5102268;28;20046;-70
2022/03/13 01:31:35;;;;;;;14.90;6.85;;;;;;;1.15;40.81;101628.41;5103524;28;20561;-70
2022/03/13 01:34:03;;;;;;;15.95;6.90;;;;;;;0.83;41.78;101620.63;5101801;28;20046;-70
2022/03/13 01:36:30;;;;;;;12.15;6.03;;;;;;;1.14;41.14;101624.13;5100196;28;20043;-70
2022/03/13 01:39:01;;;;;;;14.60;6.78;;;;;;;1.27;40.57;101621.53;5088286;28;20500;-70
2022/03/13 01:41:29;;;;;;;14.45;6.82;;;;;;;1.07;41.18;101619.81;5096623;28;20094;-70
2022/03/13 01:43:57;;;;;;;15.55;7.45;;;;;;;1.02;41.22;101616.34;5109082;28;20043;-70
2022/03/13 01:46:23;;;;;;;13.35;6.47;;;;;;;0.70;41.76;101624.88;5108099;28;20407;-70
2022/03/13 01:48:55;;;;;;;14.27;6.60;;;;;;;0.67;42.27;101619.72;5108933;28;20058;-70
2022/03/13 01:51:22;;;;;;;11.73;6.40;;;;;;;0.57;42.82;101620.56;5108597;28;20075;-71
2022/03/13 01:53:52;;;;;;;14.07;6.53;;;;;;;0.60;42.92;101615.41;5103764;28;20131;-70
2022/03/13 01:56:20;;;;;;;12.95;6.55;;;;;;;0.55;42.37;101611.97;5102072;28;20075;-70
2022/03/13 01:58:50;;;;;;;15.88;6.50;;;;;;;0.66;42.06;101610.28;5100097;28;20097;-70
2022/03/13 02:01:19;;;;;;;15.23;6.22;;;;;;;0.75;42.26;101620.59;5093341;28;20076;-70
2022/03/13 02:03:45;;;;;;;14.23;7.15;;;;;;;0.54;42.46;101617.13;5098920;28;20364;-70
2022/03/13 02:06:11;;;;;;;12.63;6.18;;;;;;;0.34;42.63;101609.28;5106128;28;20576;-70
2022/03/13 02:08:38;;;;;;;12.30;5.90;;;;;;;0.17;42.95;101610.94;5100148;28;20090;-70
2022/03/13 02:11:05;;;;;;;15.07;6.72;;;;;;;0.64;41.60;101609.41;5106740;28;20126;-70
2022/03/13 02:13:34;;;;;;;15.52;6.93;;;;;;;0.63;42.10;101612.81;5091832;28;20484;-70
2022/03/13 02:16:00;;;;;;;13.20;6.22;;;;;;;0.95;40.21;101615.50;5075452;28;20040;-70
2022/03/13 02:18:28;;;;;;;13.60;6.15;;;;;;;0.98;40.20;101600.00;5088661;28;20048;-70
2022/03/13 02:20:54;;;;;;;10.07;5.45;;;;;;;1.00;40.62;101602.59;5088431;28;21131;-70
2022/03/13 02:23:24;;;;;;;11.25;5.60;;;;;;;1.00;40.27;101607.75;5091339;28;20067;-70
2022/03/13 02:25:52;;;;;;;12.55;4.78;;;;;;;0.97;39.98;101603.44;5084287;28;20561;-70
2022/03/13 02:28:20;;;;;;;11.07;5.85;;;;;;;1.15;39.23;101597.41;5095457;28;20093;-70
2022/03/13 02:30:47;;;;;;;18.17;5.72;;;;;;;1.27;39.09;101600.00;5091392;28;20121;-70
2022/03/13 02:33:17;;;;;;;11.57;6.10;;;;;;;1.32;39.41;101593.13;5092671;28;20075;-70
2022/03/13 02:35:43;;;;;;;12.90;6.32;;;;;;;0.99;40.05;101596.56;5100397;28;20085;-70
2022/03/13 02:38:09;;;;;;;11.77;5.68;;;;;;;1.13;38.96;101588.81;5092160;28;20044;-70
2022/03/13 02:40:38;;;;;;;11.57;6.00;;;;;;;0.93;39.31;101587.06;5101565;28;20043;-70
2022/03/13 02:43:04;;;;;;;11.18;5.88;;;;;;;1.59;37.99;101593.09;5112798;28;20513;-70
2022/03/13 02:45:33;;;;;;;14.45;5.72;;;;;;;1.54;38.00;101581.91;5110374;28;20116;-70
2022/03/13 02:48:01;;;;;;;12.98;6.93;;;;;;;1.54;37.87;101586.22;5111845;28;20120;-70
2022/03/13 02:50:27;;;;;;;12.82;5.80;;;;;;;1.21;38.47;101582.81;5111408;28;20457;-70
2022/03/13 02:52:54;;;;;;;12.95;6.00;;;;;;;1.32;38.54;101578.50;5104390;28;20452;-70
2022/03/13 02:55:21;;;;;;;16.90;6.57;;;;;;;1.60;37.84;101573.28;5104799;28;20079;-70
2022/03/13 02:57:48;;;;;;;13.18;6.03;;;;;;;1.38;38.12;101575.03;5099263;28;20067;-70
2022/03/13 03:00:17;;;;;;;14.23;6.78;;;;;;;1.47;37.95;101569.88;5094538;28;20044;-70
2022/03/13 03:02:43;;;;;;;12.93;5.93;;;;;;;1.46;38.04;101562.97;5103444;28;20044;-70
2022/03/13 03:05:10;;;;;;;9.48;4.85;;;;;;;1.44;38.06;101564.69;5105323;28;20492;-70
2022/03/13 03:07:37;;;;;;;11.10;5.57;;;;;;;1.85;37.24;101567.16;5101245;28;20105;-70
2022/03/13 03:10:05;;;;;;;11.70;5.90;;;;;;;1.49;37.65;101565.53;5091426;28;20063;-70
2022/03/13 03:12:34;;;;;;;11.88;5.32;;;;;;;1.48;37.90;101570.72;5091446;28;20389;-70
2022/03/13 03:15:02;;;;;;;9.60;4.53;;;;;;;1.27;38.04;101569.88;5072362;28;20051;-70
2022/03/13 03:17:28;;;;;;;8.80;4.18;;;;;;;1.02;38.42;101564.72;5071695;28;20145;-70
2022/03/13 03:19:54;;;;;;;14.63;6.60;;;;;;;0.83;39.14;101566.41;5078079;28;20044;-70
2022/03/13 03:22:21;;;;;;;11.75;5.85;;;;;;;1.00;38.99;101563.88;5088225;28;20113;-70
2022/03/13 03:24:48;;;;;;;9.70;5.28;;;;;;;0.83;38.71;101563.84;5084200;28;20062;-69
2022/03/13 03:27:16;;;;;;;12.55;4.63;;;;;;;1.10;38.69;101563.84;5091116;28;20496;-70
2022/03/13 03:29:42;;;;;;;10.65;5.28;;;;;;;0.94;38.80;101570.72;5090447;28;20044;-70
2022/03/13 03:32:10;;;;;;;14.32;6.32;;;;;;;0.89;38.98;101569.84;5090662;28;20052;-70
2022/03/13 03:34:36;;;;;;;12.63;5.25;;;;;;;1.13;38.51;101563.00;5084537;28;20072;-70
2022/03/13 03:37:04;;;;;;;8.93;4.43;;;;;;;1.13;38.20;101563.84;5086815;28;20068;-70
2022/03/13 03:39:32;;;;;;;8.45;4.85;;;;;;;1.43;38.16;101568.16;5090717;28;20083;-70
2022/03/13 03:41:59;;;;;;;9.57;4.90;;;;;;;1.47;37.92;101575.03;5076149;28;20048;-70
2022/03/13 03:44:26;;;;;;;12.13;6.18;;;;;;;1.17;38.32;101575.03;5071124;28;20402;-70
2022/03/13 03:46:55;;;;;;;11.05;6.10;;;;;;;1.52;37.58;101570.69;5081013;28;20488;-70
2022/03/13 03:49:22;;;;;;;15.68;5.65;;;;;;;1.62;37.71;101584.47;5088087;28;20664;-70
2022/03/13 03:51:49;;;;;;;13.88;6.15;;;;;;;1.32;38.71;101578.50;5090776;28;20135;-70
2022/03/13 03:54:15;;;;;;;11.80;5.57;;;;;;;1.25;38.31;101575.91;5084649;28;20052;-70
2022/03/13 03:56:41;;;;;;;13.77;5.25;;;;;;;1.43;38.14;101581.94;5091122;28;20043;-70
2022/03/13 03:59:08;;;;;;;10.77;5.72;;;;;;;1.71;37.75;101579.28;5089592;28;20121;-70
2022/03/13 04:01:37;;;;;;;15.32;6.13;;;;;;;1.46;38.01;101578.47;5091010;28;20093;-70
2022/03/13 04:04:05;;;;;;;11.65;5.65;;;;;;;1.23;38.61;101581.06;5089959;28;20043;-70
2022/03/13 04:06:33;;;;;;;12.30;5.63;;;;;;;1.10;39.04;101581.94;5081553;28;20040;-70
2022/03/13 04:08:59;;;;;;;12.52;5.57;;;;;;;1.28;38.65;101581.94;5088085;28;20048;-70
2022/03/13 04:11:25;;;;;;;11.38;5.32;;;;;;;1.27;38.84;101577.63;5090105;28;20047;-70
2022/03/13 04:13:52;;;;;;;11.85;5.95;;;;;;;1.01;39.28;101583.63;5085811;28;20072;-70
2022/03/13 04:16:18;;;;;;;11.77;5.57;;;;;;;0.90;39.45;101587.06;5070596;28;20052;-70
2022/03/13 04:18:44;;;;;;;11.13;5.80;;;;;;;1.26;38.81;101585.34;5094221;28;20128;-70
2022/03/13 04:21:11;;;;;;;12.27;5.80;;;;;;;1.26;38.68;101586.22;5094901;28;20048;-70
2022/03/13 04:23:38;;;;;;;13.68;6.43;;;;;;;1.62;37.82;101585.34;5104416;28;20557;-70
2022/03/13 04:26:05;;;;;;;9.98;5.60;;;;;;;1.36;38.32;101582.78;5102961;28;20065;-70
2022/03/13 04:28:32;;;;;;;11.15;5.30;;;;;;;1.47;38.02;101577.63;5102089;28;20036;-70
2022/03/13 04:30:59;;;;;;;11.73;5.20;;;;;;;1.08;38.64;101583.63;5090762;28;20524;-70
2022/03/13 04:33:27;;;;;;;11.43;5.25;;;;;;;1.04;38.92;101591.38;5099386;28;20052;-70
2022/03/13 04:35:57;;;;;;;11.60;5.85;;;;;;;1.36;38.28;101577.63;5101122;28;20043;-70
2022/03/13 04:38:24;;;;;;;21.13;5.63;;;;;;;1.44;38.06;101570.69;5102822;28;20699;-70
2022/03/13 04:40:53;;;;;;;8.30;4.95;;;;;;;1.68;37.49;101574.97;5100311;28;20067;-70
2022/03/13 04:43:20;;;;;;;11.10;5.20;;;;;;;1.44;38.17;101577.63;5109453;28;20730;-70
2022/03/13 04:45:46;;;;;;;11.90;5.88;;;;;;;1.34;38.94;101576.75;5099839;28;20043;-70
2022/03/13 04:48:13;;;;;;;12.93;5.82;;;;;;;1.26;39.16;101583.63;5094355;28;20257;-70
2022/03/13 04:50:40;;;;;;;11.70;5.65;;;;;;;1.19;39.40;101575.88;5088816;28;20052;-70
2022/03/13 04:53:06;;;;;;;11.57;5.68;;;;;;;1.33;38.63;101579.34;5101386;28;20418;-70
2022/03/13 04:55:33;;;;;;;13.85;5.95;;;;;;;1.34;38.59;101581.06;5100308;28;20049;-70
2022/03/13 04:58:00;;;;;;;13.23;5.40;;;;;;;0.76;39.63;101586.19;5100083;28;20043;-70
2022/03/13 05:00:27;;;;;;;14.57;5.32;;;;;;;1.05;39.33;101588.81;5092300;28;20048;-70
2022/03/13 05:02:54;;;;;;;15.30;6.15;;;;;;;0.82;39.69;101586.19;5095267;28;20056;-70
2022/03/13 05:05:21;;;;;;;12.45;6.00;;;;;;;1.03;38.81;101587.09;5092206;28;20549;-69
2022/03/13 05:07:47;;;;;;;11.43;5.70;;;;;;;0.78;39.48;101587.06;5109608;28;20044;-69
2022/03/13 05:10:15;;;;;;;11.90;5.28;;;;;;;0.37;40.38;101584.38;5091950;28;20093;-70
2022/03/13 05:12:43;;;;;;;10.50;4.75;;;;;;;0.43;40.19;101580.97;5089206;28;20070;-70
2022/03/13 05:15:11;;;;;;;11.00;5.35;;;;;;;0.73;39.39;101598.25;5094238;28;20518;-70
2022/03/13 05:17:38;;;;;;;12.43;5.38;;;;;;;0.82;39.22;101595.66;5108481;28;20039;-71
2022/03/13 05:20:05;;;;;;;11.43;5.50;;;;;;;0.77;39.17;101587.94;5107793;28;20089;-70
2022/03/13 05:22:32;;;;;;;12.10;5.65;;;;;;;0.87;39.18;101592.25;5105601;28;20039;-70
2022/03/13 05:24:58;;;;;;;18.33;5.13;;;;;;;0.93;38.96;101596.53;5078821;28;20044;-70
2022/03/13 05:27:24;;;;;;;7.40;3.83;;;;;;;0.71;39.62;101600.81;5082563;28;20488;-70
2022/03/13 05:29:51;;;;;;;11.77;5.47;;;;;;;0.37;40.39;101604.16;5085601;28;20052;-70
2022/03/13 05:32:18;;;;;;;10.85;5.43;;;;;;;0.33;40.64;101605.00;5091543;28;20047;-70
2022/03/13 05:34:46;;;;;;;13.13;4.75;;;;;;;0.28;40.79;101604.13;5086600;28;20114;-70
2022/03/13 05:37:12;;;;;;;12.95;5.28;;;;;;;0.63;40.00;101609.41;5076875;28;20094;-70
2022/03/13 05:39:39;;;;;;;8.98;5.07;;;;;;;0.56;40.26;101620.53;5069699;28;20052;-70
2022/03/13 05:42:06;;;;;;;11.98;5.75;;;;;;;0.36;40.74;101612.75;5069413;28;20048;-70
2022/03/13 05:44:33;;;;;;;9.88;4.65;;;;;;;0.62;40.23;101615.41;5089809;28;20050;-70
2022/03/13 05:46:59;;;;;;;10.52;5.65;;;;;;;0.59;40.31;101618.88;5088678;28;20047;-70
2022/03/13 05:49:27;;;;;;;9.57;3.83;;;;;;;0.84;39.97;101614.63;5092598;28;20454;-70
2022/03/13 05:51:54;;;;;;;10.90;5.18;;;;;;;0.85;39.82;101617.19;5106834;28;20047;-71
2022/03/13 05:54:21;;;;;;;9.30;4.95;;;;;;;0.51;40.50;101619.69;5092662;28;20071;-71
2022/03/13 05:56:48;;;;;;;11.27;4.97;;;;;;;0.77;40.16;101621.50;5092726;28;20040;-71
2022/03/13 05:59:14;;;;;;;11.98;5.75;;;;;;;0.82;39.84;101617.19;5108254;28;20096;-71
2022/03/13 06:01:41;;;;;;;11.55;5.43;;;;;;;1.19;39.10;101614.63;5107619;28;20044;-71
2022/03/13 06:04:08;;;;;;;14.75;4.90;;;;;;;1.45;38.58;101612.91;5107806;28;20488;-71
2022/03/13 06:06:36;;;;;;;12.70;6.07;;;;;;;1.12;39.07;101607.75;5103483;28;20488;-71
2022/03/13 06:09:03;;;;;;;13.25;5.65;;;;;;;1.24;39.02;101620.69;5071798;28;20044;-71
2022/03/13 06:11:29;;;;;;;11.98;6.00;;;;;;;1.44;38.79;101612.06;5087478;28;20388;-71
2022/03/13 06:13:56;;;;;;;9.00;4.97;;;;;;;1.51;38.25;101612.94;5072122;28;20098;-71
2022/03/13 06:16:24;;;;;;;17.15;8.25;;;;;;;2.09;37.78;101605.03;5093341;28;20047;-71
2022/03/13 06:18:50;;;;;;;25.17;11.32;;;;;;;3.26;35.67;101613.88;5091573;28;20454;-71
2022/03/13 06:21:17;;;;;;;11.20;5.88;;;;;;;2.60;35.73;101609.13;5088242;28;20040;-71
2022/03/13 06:23:44;;;;;;;14.77;8.30;;;;;;;2.43;36.64;101615.28;5089933;28;20052;-71
2022/03/13 06:26:11;;;;;;;14.95;8.20;;;;;;;2.48;36.43;101623.00;5092037;28;20040;-71
2022/03/13 06:28:37;;;;;;;14.52;6.25;;;;;;;2.65;36.57;101621.19;5096397;28;20047;-71
2022/03/13 06:31:04;;;;;;;13.45;7.05;;;;;;;2.88;36.01;101621.06;5091835;28;20052;-71
2022/03/13 06:33:30;;;;;;;11.40;6.78;;;;;;;3.52;35.44;101616.25;5091107;28;20168;-71
2022/03/13 06:35:57;;;;;;;14.80;6.43;;;;;;;3.69;35.15;101609.19;5093243;28;20055;-71
2022/03/13 06:38:23;;;;;;;11.57;6.35;;;;;;;4.55;33.35;101606.44;5092061;28;20758;-71
2022/03/13 06:40:51;;;;;;;12.13;6.85;;;;;;;3.61;34.38;101617.91;5104458;27;20112;-71
2022/03/13 06:43:17;;;;;;;12.57;6.25;;;;;;;3.72;35.26;101616.94;5098116;27;20040;-71
2022/03/13 06:45:44;;;;;;;12.50;6.40;;;;;;;4.61;33.95;101612.44;5092015;28;20044;-71
2022/03/13 06:48:11;;;;;;;10.20;5.43;;;;;;;4.27;33.61;101603.34;5092115;28;20089;-70
2022/03/13 06:50:38;;;;;;;10.82;5.93;;;;;;;4.74;33.48;101607.91;5094848;28;20082;-70
2022/03/13 06:53:04;;;;;;;15.55;6.97;;;;;;;5.58;32.68;101605.72;5100781;28;20048;-70
2022/03/13 06:55:31;;;;;;;13.95;6.75;;;;;;;5.60;32.31;101598.75;5080782;28;20060;-70
2022/03/13 06:57:58;;;;;;;13.13;7.43;;;;;;;6.13;31.76;101596.94;5091925;28;20048;-71
2022/03/13 07:00:25;;;;;;;20.65;6.30;;;;;;;6.41;31.32;101599.81;5091142;28;20239;-71
2022/03/13 07:02:51;;;;;;;11.40;6.07;;;;;;;5.63;31.63;101603.91;5091588;28;20059;-71
2022/03/13 07:05:19;;;;;;;15.23;6.88;;;;;;;5.52;32.05;101605.81;5087451;28;20070;-71
2022/03/13 07:07:45;;;;;;;14.65;6.88;;;;;;;5.65;31.83;101607.34;5082547;28;20124;-70
2022/03/13 07:10:12;;;;;;;12.95;6.82;;;;;;;5.69;31.58;101603.78;5070683;28;20044;-70
2022/03/13 07:12:40;;;;;;;10.73;5.47;;;;;;;6.04;30.94;101610.13;5083813;28;20074;-70
2022/03/13 07:15:10;;;;;;;15.32;6.93;;;;;;;5.84;31.48;101611.31;5081791;28;20044;-70
2022/03/13 07:17:37;;;;;;;11.15;6.95;;;;;;;5.80;31.80;101612.25;5092343;28;20115;-70
2022/03/13 07:20:04;;;;;;;9.45;5.65;;;;;;;6.67;30.26;101619.22;5094679;28;20161;-70
2022/03/13 07:22:30;;;;;;;14.25;6.43;;;;;;;6.53;29.79;101616.06;5111060;28;20043;-70
2022/03/13 07:24:56;;;;;;;10.43;6.22;;;;;;;6.41;30.17;101611.09;5107186;28;20050;-70
2022/03/13 07:27:23;;;;;;;11.73;6.65;;;;;;;6.69;30.68;101622.66;5111213;28;20093;-70
2022/03/13 07:29:50;;;;;;;11.93;6.55;;;;;;;6.15;31.56;101618.56;5107310;28;20760;-71
2022/03/13 07:32:18;;;;;;;11.85;6.82;;;;;;;6.66;30.79;101608.81;5102822;28;20118;-70
2022/03/13 07:34:44;;;;;;;14.07;7.20;;;;;;;6.45;30.70;101615.34;5102493;28;20064;-70
2022/03/13 07:37:11;;;;;;;12.93;6.97;;;;;;;7.11;30.30;101613.00;5107803;28;20067;-71
2022/03/13 07:39:38;;;;;;;16.02;7.57;;;;;;;6.92;29.24;101618.66;5103979;28;20079;-70
2022/03/13 07:42:06;;;;;;;14.45;7.28;;;;;;;6.12;30.16;101608.22;5110204;28;20286;-69
2022/03/13 07:44:32;;;;;;;10.80;6.70;;;;;;;6.82;30.51;101605.00;5107037;28;20411;-70
2022/03/13 07:46:58;;;;;;;11.82;6.05;;;;;;;7.01;30.04;101605.44;5098329;28;20052;-70
2022/03/13 07:49:26;;;;;;;13.85;7.50;;;;;;;7.44;28.31;101598.28;5101046;28;20104;-67
2022/03/13 07:51:52;;;;;;;12.60;7.50;;;;;;;7.20;28.71;101604.13;5103498;28;20068;-68
2022/03/13 07:54:20;;;;;;;15.00;6.85;;;;;;;7.32;29.21;101604.66;5100662;28;20066;-68
2022/03/13 07:56:47;;;;;;;9.23;5.10;;;;;;;6.46;29.16;101609.28;5106526;28;20042;-67
2022/03/13 07:59:13;;;;;;;13.38;7.30;;;;;;;8.13;29.09;101589.50;5096692;28;20048;-67
2022/03/13 08:01:40;;;;;;;13.30;6.70;;;;;;;8.50;27.52;101599.78;5109222;28;20048;-67
2022/03/13 08:04:06;;;;;;;13.90;6.75;;;;;;;9.32;26.52;101587.56;5112194;28;20043;-68
2022/03/13 08:06:35;;;;;;;11.10;7.13;;;;;;;9.08;26.67;101588.38;5095985;28;20112;-67
2022/03/13 08:09:02;;;;;;;11.73;6.97;;;;;;;9.47;25.11;101583.56;5096475;28;20040;-67
2022/03/13 08:11:28;;;;;;;12.10;6.70;;;;;;;9.90;25.68;101590.84;5110670;28;20561;-69
2022/03/13 08:13:55;;;;;;;24.65;6.47;;;;;;;9.03;25.92;101582.41;5107898;28;20044;-68
2022/03/13 08:16:21;;;;;;;11.27;7.00;;;;;;;9.17;27.44;101578.47;5101371;28;20043;-68
2022/03/13 08:18:48;;;;;;;12.05;6.93;;;;;;;8.90;26.62;101586.34;5092156;28;20051;-67
2022/03/13 08:21:15;;;;;;;11.43;6.97;;;;;;;8.85;26.82;101581.25;5095054;28;20048;-67
2022/03/13 08:23:43;;;;;;;10.07;6.47;;;;;;;9.47;28.38;101581.81;5104972;28;20059;-67
2022/03/13 08:26:11;;;;;;;10.95;6.80;;;;;;;9.55;25.09;101571.94;5103221;28;20047;-67
2022/03/13 08:28:38;;;;;;;11.05;6.78;;;;;;;10.26;25.21;101579.03;5109975;28;20044;-67
2022/03/13 08:31:04;;;;;;;12.35;6.38;;;;;;;10.45;24.66;101579.22;5102561;28;20063;-67
2022/03/13 08:33:31;;;;;;;10.73;6.40;;;;;;;11.10;23.59;101566.13;5104256;28;20051;-68
2022/03/13 08:35:57;;;;;;;9.93;6.10;;;;;;;9.66;25.05;101563.72;5101122;28;20704;-70
2022/03/13 08:38:23;;;;;;;10.63;6.00;;;;;;;10.44;24.08;101569.63;5101174;28;20065;-70
2022/03/13 08:40:51;;;;;;;12.20;6.75;;;;;;;10.56;23.59;101556.06;5091378;28;20040;-70
2022/03/13 08:43:18;;;;;;;14.30;6.40;;;;;;;11.17;23.34;101557.94;5096466;28;20040;-68
2022/03/13 08:45:44;;;;;;;15.07;6.50;;;;;;;11.05;23.70;101570.69;5107792;28;20052;-69
2022/03/13 08:48:13;;;;;;;12.18;6.95;;;;;;;11.34;23.54;101551.16;5097656;28;20063;-68
2022/03/13 08:50:39;;;;;;;11.73;6.85;;;;;;;12.05;23.30;101556.78;5100034;28;20068;-69
2022/03/13 08:53:05;;;;;;;10.80;6.82;;;;;;;12.10;24.63;101551.31;5106036;28;20063;-68
2022/03/13 08:55:32;;;;;;;12.60;7.22;;;;;;;11.97;22.18;101539.66;5091922;28;20044;-68
2022/03/13 08:58:00;;;;;;;10.48;6.82;;;;;;;12.21;22.18;101543.81;5095057;28;20047;-68
2022/03/13 09:00:26;;;;;;;11.30;6.63;;;;;;;10.89;22.59;101546.00;5105616;28;20092;-68
2022/03/13 09:02:53;;;;;;;9.25;5.90;;;;;;;11.89;23.31;101537.38;5100066;28;20060;-68
2022/03/13 09:05:21;;;;;;;7.75;5.53;;;;;;;12.31;22.04;101552.97;5101110;28;20122;-68
2022/03/13 09:07:47;;;;;;;14.15;7.10;;;;;;;12.21;22.48;101541.16;5108436;28;20037;-68
2022/03/13 09:10:14;;;;;;;10.95;6.50;;;;;;;10.99;22.63;101547.34;5095324;28;20097;-68
2022/03/13 09:12:41;;;;;;;9.45;6.43;;;;;;;11.54;21.79;101531.00;5100324;28;20043;-68
2022/03/13 09:15:09;;;;;;;13.27;6.45;;;;;;;10.57;24.78;101542.00;5105663;28;20575;-68
2022/03/13 09:17:35;;;;;;;12.27;6.97;;;;;;;10.89;23.05;101541.63;5104684;28;20159;-68
2022/03/13 09:20:03;;;;;;;8.90;5.43;;;;;;;11.21;21.42;101548.16;5101023;28;21171;-68
2022/03/13 09:22:30;;;;;;;12.68;5.97;;;;;;;10.55;22.22;101549.97;5098335;28;20133;-69
2022/03/13 09:24:58;;;;;;;11.82;6.68;;;;;;;10.24;23.46;101544.16;5099398;28;20058;-69
2022/03/13 09:27:24;;;;;;;10.95;5.88;;;;;;;10.10;22.78;101546.41;5106964;28;20052;-68
2022/03/13 09:29:51;;;;;;;7.95;4.75;;;;;;;10.46;22.32;101547.69;5104037;28;20059;-68
2022/03/13 09:32:19;;;;;;;12.70;6.20;;;;;;;10.50;22.80;101546.66;5096564;28;20096;-68
2022/03/13 09:34:46;;;;;;;12.18;7.22;;;;;;;10.69;22.56;101546.78;5103109;28;20123;-68
2022/03/13 09:37:12;;;;;;;11.98;6.38;;;;;;;11.79;23.05;101538.69;5101672;28;20048;-68
2022/03/13 09:39:38;;;;;;;11.02;6.50;;;;;;;11.51;24.73;101549.50;5091978;28;20047;-66
2022/03/13 09:42:05;;;;;;;11.05;5.90;;;;;;;11.34;21.61;101556.41;5088004;28;20044;-66
2022/03/13 09:44:31;;;;;;;10.70;6.25;;;;;;;11.01;22.88;101548.97;5086041;28;20044;-66
2022/03/13 09:46:58;;;;;;;13.85;6.80;;;;;;;11.38;23.70;101553.56;5091719;28;20051;-66
2022/03/13 09:49:27;;;;;;;10.18;6.63;;;;;;;10.97;22.25;101547.41;5086487;28;20050;-66
2022/03/13 09:51:54;;;;;;;11.45;6.70;;;;;;;11.70;21.55;101555.69;5097663;28;20055;-67
2022/03/13 09:54:20;;;;;;;11.32;5.60;;;;;;;11.87;22.32;101568.09;5101525;28;20063;-67
2022/03/13 09:56:46;;;;;;;12.27;6.20;;;;;;;12.92;21.09;101550.94;5097311;28;20075;-67
2022/03/13 09:59:13;;;;;;;10.57;6.07;;;;;;;12.16;21.35;101558.91;5104128;28;20128;-67
2022/03/13 10:01:40;;;;;;;10.85;6.47;;;;;;;11.59;21.75;101557.06;5101042;28;20093;-65
2022/03/13 10:04:06;;;;;;;13.07;6.80;;;;;;;12.58;23.59;101556.09;5100455;28;20114;-66
2022/03/13 10:07:01;;;;;;;11.07;7.28;;;;;;;12.29;23.99;101557.47;5100754;28;20407;-66
2022/03/13 10:09:29;;;;;;;11.38;7.50;;;;;;;12.41;22.22;101550.78;5101399;28;20039;-67
2022/03/13 10:12:05;;;;;;;12.02;6.85;;;;;;;13.28;23.91;101550.94;5088807;28;20040;-67
2022/03/13 10:14:32;;;;;;;10.48;7.25;;;;;;;13.05;22.52;101551.19;5095091;28;20040;-66
2022/03/13 10:16:58;;;;;;;10.95;6.82;;;;;;;12.63;22.66;101548.84;5105228;28;20717;-67
2022/03/13 10:19:28;;;;;;;11.75;7.05;;;;;;;12.56;21.89;101543.00;5106032;28;20101;-68
2022/03/13 10:22:07;;;;;;;12.30;7.53;;;;;;;12.36;22.53;101544.88;5107629;28;20533;-67
2022/03/13 10:24:41;;;;;;;12.07;6.47;;;;;;;12.62;22.38;101539.25;5085578;28;20048;-67
2022/03/13 10:27:12;;;;;;;12.65;6.07;;;;;;;12.24;22.30;101538.41;5098730;28;20513;-67
2022/03/13 10:29:40;;;;;;;13.55;6.68;;;;;;;12.99;23.13;101543.59;5104559;28;20035;-67
2022/03/13 10:32:07;;;;;;;16.17;6.93;;;;;;;12.87;22.64;101531.03;5108237;28;20426;-67
2022/03/13 10:34:33;;;;;;;10.93;6.82;;;;;;;13.19;22.41;101532.97;5109154;28;20105;-67
2022/03/13 10:37:01;;;;;;;12.18;7.05;;;;;;;12.84;22.13;101532.03;5084715;28;20040;-67
2022/03/13 10:39:30;;;;;;;9.70;5.70;;;;;;;12.98;22.72;101537.47;5086979;28;20097;-67
2022/03/13 10:42:02;;;;;;;15.45;6.70;;;;;;;13.00;22.47;101524.25;5089274;28;20513;-67
2022/03/13 10:44:30;;;;;;;9.70;5.65;;;;;;;13.40;21.68;101526.63;5091238;28;20050;-67
2022/03/13 10:46:58;;;;;;;14.18;6.60;;;;;;;12.30;23.17;101532.88;5092210;28;20048;-68
2022/03/13 10:49:38;;;;;;;10.48;6.82;;;;;;;12.16;23.78;101532.63;5082055;28;20056;-67
2022/03/13 10:52:23;;;;;;;13.05;6.85;;;;;;;12.04;23.17;101530.59;5074781;28;20455;-68
2022/03/13 10:54:51;;;;;;;11.50;6.80;;;;;;;12.43;25.79;101520.00;5083360;28;20464;-68
2022/03/13 10:57:18;;;;;;;9.88;5.53;;;;;;;12.50;22.68;101508.25;5072036;28;20040;-68
2022/03/13 10:59:45;;;;;;;10.98;6.65;;;;;;;12.04;23.55;101523.56;5070829;28;20048;-67
2022/03/13 11:02:13;;;;;;;12.27;7.45;;;;;;;12.54;24.76;101521.19;5072769;28;20044;-68
2022/03/13 11:04:46;;;;;;;11.00;7.03;;;;;;;13.00;24.31;101521.63;5088793;28;20040;-68
2022/03/13 11:07:13;;;;;;;14.93;7.15;;;;;;;12.88;22.42;101517.78;5083600;28;20044;-67
2022/03/13 11:09:39;;;;;;;10.90;6.70;;;;;;;13.49;21.69;101517.38;5085723;28;20048;-68
2022/03/13 11:12:17;;;;;;;13.95;7.22;;;;;;;12.35;22.31;101522.97;5091383;28;20121;-68
2022/03/13 11:14:46;;;;;;;10.52;6.75;;;;;;;12.74;23.29;101511.50;5089423;28;20048;-68
2022/03/13 11:17:14;;;;;;;12.18;6.30;;;;;;;13.55;22.35;101509.19;5079821;28;20051;-68
2022/03/13 11:19:41;;;;;;;13.95;6.72;;;;;;;12.60;22.41;101514.81;5087421;28;20055;-67
2022/03/13 11:22:08;;;;;;;12.20;7.30;;;;;;;13.23;25.46;101508.16;5076168;28;20055;-68
2022/03/13 11:24:36;;;;;;;13.27;7.05;;;;;;;13.34;22.11;101505.84;5092381;28;20040;-69